Aviation Digital Data Service (ADDS)

Output produced by METARs form (0813 UTC 24 May 2018)
found at http://www.aviationweather.gov/adds/metars/
 
FEFF 240700Z 17004KT 9999 SCT007 24/22 Q1014 NOSIG
TAF FEFF 240500Z 2406/2512 VRB03KT 9999 FEW007 
     BECMG 2408/2410 BKN013 
     TEMPO 2411/2414 04015G35KT 4000 TSRA BKN023 FEW033CB 
     BECMG 2416/2417 BKN013 FEW033CB 
     PROB30 
     TEMPO 2417/2420 4000 TSRA
       
FEFT 240700Z 28010KT 9999 BKN010 22/20 Q1011